| time (UTC) | temp C | wind direction | speed KPH | gust KPH | rain 1hr cm | rain 24hr cm | rain mn cm | humidity % | barometer mb |
| 20260507142703 | 12 | 258 | 8.0 | 22.5 | 0.00 | 0.15 | 0.03 | 57 | 1008.6 |
| 20260507141803 | 12 | 249 | 8.0 | 27.4 | 0.00 | 0.15 | 0.03 | 62 | 1008.6 |
| 20260507140903 | 12 | 236 | 6.4 | 17.7 | 0.00 | 0.15 | 0.03 | 65 | 1008.6 |
| 20260507140212 | 11 | 274 | 8.0 | 20.9 | 0.00 | 0.15 | 0.03 | 65 | 1008.6 |
| 20260507135403 | 11 | 245 | 9.7 | 30.6 | 0.00 | 0.15 | 0.03 | 65 | 1008.4 |
| 20260507134503 | 11 | 240 | 8.0 | 22.5 | 0.00 | 0.15 | 0.03 | 70 | 1008.3 |
| 20260507133603 | 11 | 247 | 6.4 | 17.7 | 0.00 | 0.15 | 0.03 | 73 | 1008.3 |
| 20260507132703 | 11 | 237 | 8.0 | 19.3 | 0.00 | 0.15 | 0.03 | 73 | 1008.3 |
| 20260507131803 | 11 | 247 | 8.0 | 20.9 | 0.00 | 0.15 | 0.03 | 72 | 1008.5 |
| 20260507130903 | 11 | 241 | 9.7 | 19.3 | 0.00 | 0.15 | 0.03 | 75 | 1008.5 |
| 20260507130003 | 11 | 246 | 8.0 | 22.5 | 0.00 | 0.15 | 0.03 | 74 | 1008.5 |
| 20260507125613 | 11 | 253 | 8.0 | 22.5 | 0.00 | 0.15 | 0.03 | 74 | 1008.6 |
| 20260507124503 | 11 | 276 | 4.8 | 16.1 | 0.00 | 0.15 | 0.03 | 75 | 1008.5 |
| 20260507123814 | 10 | 223 | 4.8 | 14.5 | 0.00 | 0.15 | 0.03 | 77 | 1008.5 |
| 20260507122705 | 10 | 260 | 6.4 | 19.3 | 0.00 | 0.15 | 0.03 | 77 | 1008.5 |
| 20260507121803 | 10 | 247 | 8.0 | 24.1 | 0.00 | 0.15 | 0.03 | 78 | 1008.6 |
| 20260507120903 | 9 | 261 | 6.4 | 22.5 | 0.00 | 0.15 | 0.03 | 80 | 1008.5 |
| 20260507120213 | 9 | 263 | 6.4 | 25.7 | 0.00 | 0.15 | 0.03 | 79 | 1008.5 |
| 20260507115403 | 8 | 260 | 6.4 | 17.7 | 0.00 | 0.15 | 0.03 | 81 | 1008.5 |
| 20260507114503 | 8 | 248 | 4.8 | 17.7 | 0.00 | 0.15 | 0.03 | 81 | 1008.6 |
| 20260507113814 | 8 | 244 | 4.8 | 16.1 | 0.00 | 0.15 | 0.03 | 84 | 1008.6 |
| 20260507112703 | 8 | 239 | 3.2 | 9.7 | 0.00 | 0.15 | 0.03 | 86 | 1008.3 |
| 20260507112012 | 8 | 255 | 3.2 | 14.5 | 0.00 | 0.15 | 0.03 | 87 | 1008.3 |
| 20260507110903 | 8 | 235 | 3.2 | 6.4 | 0.00 | 0.15 | 0.03 | 88 | 1008.4 |
| 20260507110003 | 8 | 258 | 1.6 | 11.3 | 0.00 | 0.15 | 0.03 | 89 | 1008.3 |
| 20260507105612 | 8 | 259 | 1.6 | 4.8 | 0.00 | 0.15 | 0.03 | 89 | 1008.2 |
| 20260507104714 | 8 | 259 | 1.6 | 3.2 | 0.00 | 0.15 | 0.03 | 89 | 1008.2 |
| 20260507103603 | 8 | 259 | 1.6 | 6.4 | 0.00 | 0.15 | 0.03 | 88 | 1008.3 |
| 20260507102703 | 8 | 263 | 1.6 | 9.7 | 0.00 | 0.15 | 0.03 | 88 | 1008.0 |
| 20260507101803 | 8 | 261 | 1.6 | 11.3 | 0.03 | 0.15 | 0.03 | 88 | 1007.6 |
| 20260507100903 | 8 | 284 | 3.2 | 11.3 | 0.03 | 0.15 | 0.03 | 88 | 1007.5 |
| 20260507100003 | 8 | 282 | 3.2 | 9.7 | 0.03 | 0.15 | 0.03 | 88 | 1007.6 |
| 20260507095403 | 8 | 284 | 4.8 | 14.5 | 0.03 | 0.15 | 0.03 | 88 | 1007.5 |
| 20260507094713 | 8 | 271 | 4.8 | 11.3 | 0.03 | 0.15 | 0.03 | 88 | 1007.5 |
| 20260507093603 | 8 | 265 | 3.2 | 12.9 | 0.03 | 0.15 | 0.03 | 88 | 1007.6 |
| 20260507092703 | 8 | 256 | 3.2 | 11.3 | 0.03 | 0.15 | 0.03 | 89 | 1007.7 |
| 20260507091803 | 8 | 263 | 3.2 | 11.3 | 0.00 | 0.13 | 0.00 | 90 | 1007.8 |
| 20260507091113 | 8 | 272 | 3.2 | 9.7 | 0.00 | 0.13 | 0.00 | 90 | 1007.7 |
| 20260507090212 | 8 | 258 | 3.2 | 11.3 | 0.00 | 0.13 | 0.00 | 90 | 1007.9 |
| 20260507085403 | 8 | 240 | 3.2 | 11.3 | 0.00 | 0.13 | 0.00 | 90 | 1008.1 |
| 20260507084713 | 8 | 241 | 4.8 | 12.9 | 0.00 | 0.13 | 0.00 | 90 | 1008.4 |
| 20260507083603 | 8 | 232 | 3.2 | 9.7 | 0.00 | 0.13 | 0.00 | 90 | 1008.2 |
| 20260507082703 | 8 | 279 | 3.2 | 9.7 | 0.00 | 0.13 | 0.00 | 90 | 1007.9 |
| 20260507082013 | 8 | 292 | 3.2 | 11.3 | 0.00 | 0.13 | 0.00 | 90 | 1007.9 |
| 20260507080903 | 8 | 280 | 1.6 | 6.4 | 0.00 | 0.13 | 0.00 | 91 | 1007.7 |
| 20260507080214 | 8 | 274 | 1.6 | 6.4 | 0.00 | 0.13 | 0.00 | 91 | 1007.8 |
| 20260507075403 | 8 | 273 | 1.6 | 4.8 | 0.00 | 0.13 | 0.00 | 90 | 1007.7 |
| 20260507074503 | 8 | 273 | 0.0 | 4.8 | 0.00 | 0.13 | 0.00 | 89 | 1007.7 |
| 20260507073603 | 8 | 267 | 1.6 | 6.4 | 0.00 | 0.13 | 0.00 | 88 | 1007.8 |
| 20260507072703 | 8 | 239 | 4.8 | 14.5 | 0.00 | 0.13 | 0.00 | 87 | 1007.7 |
| 20260507071803 | 8 | 242 | 4.8 | 14.5 | 0.00 | 0.13 | 0.00 | 86 | 1007.8 |
| 20260507071112 | 8 | 253 | 3.2 | 14.5 | 0.00 | 0.13 | 0.00 | 86 | 1007.7 |
| 20260507070005 | 8 | 257 | 3.2 | 11.3 | 0.00 | 0.13 | 0.00 | 86 | 1007.4 |
| 20260507065403 | 8 | 261 | 3.2 | 11.3 | 0.00 | 0.13 | 0.00 | 86 | 1007.4 |
| 20260507064503 | 8 | 293 | 3.2 | 9.7 | 0.00 | 0.13 | 0.00 | 85 | 1007.2 |
| 20260507063603 | 9 | 262 | 3.2 | 12.9 | 0.00 | 0.13 | 0.00 | 85 | 1007.0 |
| 20260507062703 | 9 | 249 | 3.2 | 14.5 | 0.00 | 0.13 | 0.00 | 87 | 1007.0 |
| 20260507061803 | 9 | 265 | 3.2 | 14.5 | 0.00 | 0.13 | 0.00 | 87 | 1007.2 |
| 20260507060903 | 9 | 251 | 3.2 | 12.9 | 0.00 | 0.13 | 0.00 | 87 | 1007.6 |
| 20260507060003 | 10 | 262 | 3.2 | 12.9 | 0.00 | 0.13 | 0.00 | 87 | 1007.5 |
| 20260507055403 | 10 | 270 | 3.2 | 12.9 | 0.00 | 0.13 | 0.00 | 87 | 1007.4 |
| 20260507054503 | 10 | 285 | 3.2 | 12.9 | 0.00 | 0.13 | 0.00 | 87 | 1007.4 |
| 20260507053603 | 10 | 277 | 4.8 | 16.1 | 0.00 | 0.13 | 0.00 | 87 | 1007.5 |
| 20260507052703 | 10 | 287 | 4.8 | 16.1 | 0.00 | 0.13 | 0.00 | 88 | 1007.6 |
| 20260507051803 | 10 | 290 | 3.2 | 11.3 | 0.00 | 0.13 | 0.00 | 91 | 1008.1 |
| 20260507050903 | 10 | 311 | 1.6 | 6.4 | 0.00 | 0.13 | 0.00 | 92 | 1007.7 |
| 20260507050003 | 11 | 302 | 1.6 | 8.0 | 0.00 | 0.13 | 0.00 | 92 | 1007.7 |
| 20260507045403 | 11 | 290 | 1.6 | 6.4 | 0.00 | 0.13 | 0.00 | 92 | 1008.0 |
| 20260507044714 | 11 | 291 | 0.0 | 6.4 | 0.00 | 0.13 | 0.00 | 92 | 1007.7 |
| 20260507043606 | 11 | 292 | 1.6 | 3.2 | 0.00 | 0.13 | 0.00 | 92 | 1007.6 |
| 20260507042703 | 11 | 285 | 1.6 | 6.4 | 0.00 | 0.13 | 0.00 | 91 | 1007.5 |
| 20260507041803 | 11 | 244 | 0.0 | 4.8 | 0.00 | 0.13 | 0.00 | 91 | 1007.5 |
| 20260507040903 | 12 | 236 | 3.2 | 16.1 | 0.00 | 0.13 | 0.00 | 91 | 1007.4 |
| 20260507040003 | 12 | 221 | 1.6 | 9.7 | 0.00 | 0.13 | 0.00 | 93 | 1007.5 |
| 20260507035403 | 12 | 219 | 1.6 | 6.4 | 0.00 | 0.13 | 0.13 | 93 | 1007.6 |
| 20260507034503 | 12 | 225 | 3.2 | 8.0 | 0.00 | 0.13 | 0.13 | 93 | 1007.6 |
| 20260507033812 | 12 | 254 | 3.2 | 9.7 | 0.00 | 0.13 | 0.13 | 92 | 1007.5 |
| 20260507032914 | 13 | 234 | 3.2 | 14.5 | 0.00 | 0.13 | 0.13 | 92 | 1007.3 |
| 20260507032013 | 13 | 231 | 3.2 | 11.3 | 0.00 | 0.13 | 0.13 | 92 | 1007.2 |
| 20260507030904 | 13 | 236 | 4.8 | 8.0 | 0.00 | 0.13 | 0.13 | 91 | 1007.1 |
| 20260507030004 | 13 | 252 | 3.2 | 11.3 | 0.00 | 0.13 | 0.13 | 92 | 1007.0 |
| 20260507025403 | 13 | 247 | 3.2 | 12.9 | 0.00 | 0.13 | 0.13 | 92 | 1006.9 |
| 20260507024503 | 13 | 231 | 3.2 | 12.9 | 0.00 | 0.13 | 0.13 | 92 | 1006.8 |
| 20260507023603 | 14 | 275 | 6.4 | 17.7 | 0.00 | 0.13 | 0.13 | 92 | 1006.6 |
| 20260507022914 | 14 | 255 | 6.4 | 17.7 | 0.00 | 0.13 | 0.13 | 93 | 1006.5 |
| 20260507022013 | 15 | 232 | 9.7 | 27.4 | 0.00 | 0.13 | 0.13 | 94 | 1006.6 |
| 20260507021112 | 15 | 227 | 6.4 | 14.5 | 0.00 | 0.13 | 0.13 | 95 | 1006.6 |
| 20260507020003 | 14 | 210 | 3.2 | 12.9 | 0.00 | 0.13 | 0.13 | 95 | 1006.3 |
| 20260507015613 | 14 | 206 | 3.2 | 8.0 | 0.00 | 0.13 | 0.13 | 95 | 1006.3 |
| 20260507014503 | 14 | 203 | 4.8 | 14.5 | 0.00 | 0.13 | 0.13 | 95 | 1006.2 |
| 20260507013604 | 14 | 210 | 4.8 | 12.9 | 0.00 | 0.13 | 0.13 | 95 | 1006.3 |
| 20260507012703 | 14 | 222 | 4.8 | 16.1 | 0.00 | 0.13 | 0.13 | 95 | 1006.1 |
| 20260507011803 | 14 | 210 | 4.8 | 14.5 | 0.00 | 0.13 | 0.13 | 95 | 1006.1 |
| 20260507010903 | 14 | 206 | 6.4 | 16.1 | 0.00 | 0.13 | 0.13 | 95 | 1006.4 |
| 20260507010213 | 14 | 205 | 6.4 | 16.1 | 0.00 | 0.13 | 0.13 | 95 | 1006.3 |
| 20260507005403 | 14 | 205 | 8.0 | 19.3 | 0.00 | 0.13 | 0.13 | 95 | 1006.3 |
| 20260507004503 | 14 | 226 | 6.4 | 17.7 | 0.00 | 0.13 | 0.13 | 95 | 1006.3 |
| 20260507003603 | 14 | 214 | 4.8 | 14.5 | 0.00 | 0.13 | 0.13 | 95 | 1006.2 |
| 20260507002913 | 14 | 211 | 6.4 | 19.3 | 0.00 | 0.13 | 0.13 | 95 | 1006.2 |
| 20260507001803 | 14 | 212 | 4.8 | 12.9 | 0.00 | 0.13 | 0.13 | 95 | 1006.3 |
| 20260507000903 | 14 | 218 | 6.4 | 12.9 | 0.00 | 0.13 | 0.13 | 95 | 1006.1 |
| 20260507000004 | 14 | 218 | 4.8 | 14.5 | 0.03 | 0.13 | 0.13 | 96 | 1006.0 |
| 20260506235612 | 14 | 221 | 4.8 | 12.9 | 0.03 | 0.13 | 0.13 | 96 | 1006.0 |
| 20260506234714 | 14 | 209 | 6.4 | 17.7 | 0.03 | 0.13 | 0.13 | 96 | 1006.0 |
| 20260506233603 | 14 | 189 | 3.2 | 11.3 | 0.03 | 0.13 | 0.13 | 96 | 1005.9 |
| 20260506232703 | 14 | 182 | 3.2 | 11.3 | 0.03 | 0.13 | 0.13 | 96 | 1005.9 |
| 20260506231803 | 14 | 183 | 3.2 | 9.7 | 0.03 | 0.13 | 0.13 | 96 | 1005.9 |
| 20260506230903 | 14 | 180 | 4.8 | 12.9 | 0.03 | 0.13 | 0.13 | 96 | 1005.8 |
| 20260506230003 | 14 | 188 | 3.2 | 11.3 | 0.00 | 0.10 | 0.10 | 96 | 1005.8 |
| 20260506225403 | 14 | 179 | 4.8 | 12.9 | 0.00 | 0.10 | 0.10 | 96 | 1005.8 |
| 20260506224503 | 14 | 181 | 4.8 | 12.9 | 0.00 | 0.10 | 0.10 | 95 | 1006.0 |
| 20260506223603 | 14 | 179 | 3.2 | 11.3 | 0.00 | 0.10 | 0.10 | 95 | 1006.0 |
| 20260506222703 | 14 | 190 | 3.2 | 14.5 | 0.00 | 0.10 | 0.10 | 95 | 1006.1 |
| 20260506221803 | 14 | 175 | 3.2 | 11.3 | 0.00 | 0.10 | 0.10 | 95 | 1006.1 |
| 20260506220903 | 14 | 173 | 4.8 | 16.1 | 0.00 | 0.10 | 0.10 | 95 | 1006.3 |
| 20260506220005 | 14 | 180 | 4.8 | 14.5 | 0.00 | 0.10 | 0.10 | 95 | 1006.2 |
| 20260506215403 | 14 | 174 | 3.2 | 14.5 | 0.00 | 0.10 | 0.10 | 95 | 1006.3 |
| 20260506214503 | 14 | 182 | 4.8 | 14.5 | 0.03 | 0.10 | 0.10 | 95 | 1006.3 |
| 20260506213603 | 14 | 160 | 4.8 | 14.5 | 0.03 | 0.10 | 0.10 | 95 | 1006.3 |
| 20260506212703 | 14 | 190 | 4.8 | 12.9 | 0.03 | 0.10 | 0.10 | 94 | 1006.4 |
| 20260506211803 | 14 | 167 | 4.8 | 14.5 | 0.03 | 0.10 | 0.10 | 94 | 1006.4 |
| 20260506210903 | 14 | 195 | 4.8 | 12.9 | 0.03 | 0.10 | 0.10 | 94 | 1006.5 |
| 20260506210214 | 14 | 182 | 3.2 | 11.3 | 0.03 | 0.10 | 0.10 | 94 | 1006.6 |
| 20260506205613 | 14 | 174 | 3.2 | 14.5 | 0.05 | 0.10 | 0.10 | 94 | 1006.5 |
| 20260506204713 | 14 | 184 | 4.8 | 17.7 | 0.03 | 0.08 | 0.08 | 94 | 1006.7 |
| 20260506203814 | 14 | 183 | 4.8 | 12.9 | 0.03 | 0.08 | 0.08 | 94 | 1006.9 |
| 20260506202703 | 14 | 185 | 6.4 | 22.5 | 0.03 | 0.08 | 0.08 | 94 | 1007.0 |
| 20260506202013 | 14 | 186 | 4.8 | 11.3 | 0.03 | 0.08 | 0.08 | 94 | 1007.0 |
| 20260506200903 | 14 | 176 | 6.4 | 16.1 | 0.05 | 0.08 | 0.08 | 93 | 1007.0 |
| 20260506200004 | 15 | 169 | 4.8 | 16.1 | 0.05 | 0.08 | 0.08 | 93 | 1007.0 |
| 20260506195403 | 15 | 177 | 4.8 | 16.1 | 0.03 | 0.05 | 0.05 | 93 | 1007.1 |
| 20260506194503 | 15 | 183 | 9.7 | 22.5 | 0.03 | 0.05 | 0.05 | 92 | 1007.2 |
| 20260506193603 | 15 | 179 | 8.0 | 22.5 | 0.03 | 0.05 | 0.05 | 92 | 1007.2 |
| 20260506192703 | 15 | 172 | 9.7 | 27.4 | 0.03 | 0.05 | 0.05 | 91 | 1007.1 |
| 20260506191803 | 15 | 182 | 6.4 | 24.1 | 0.05 | 0.05 | 0.05 | 91 | 1007.2 |
| 20260506190903 | 15 | 192 | 6.4 | 16.1 | 0.03 | 0.03 | 0.03 | 91 | 1007.2 |
| 20260506190003 | 15 | 193 | 6.4 | 19.3 | 0.03 | 0.03 | 0.03 | 90 | 1007.3 |
| 20260506185403 | 15 | 176 | 6.4 | 24.1 | 0.03 | 0.03 | 0.03 | 90 | 1007.2 |
| 20260506184503 | 16 | 173 | 4.8 | 14.5 | 0.03 | 0.03 | 0.03 | 90 | 1007.1 |
| 20260506183603 | 16 | 197 | 6.4 | 20.9 | 0.03 | 0.03 | 0.03 | 88 | 1007.4 |
| 20260506182912 | 16 | 194 | 4.8 | 20.9 | 0.03 | 0.03 | 0.03 | 86 | 1007.5 |
| 20260506181803 | 16 | 205 | 4.8 | 16.1 | 0.00 | 0.00 | 0.00 | 85 | 1007.9 |
| 20260506180903 | 17 | 214 | 4.8 | 16.1 | 0.00 | 0.00 | 0.00 | 82 | 1007.7 |
| 20260506180003 | 17 | 207 | 9.7 | 25.7 | 0.00 | 0.00 | 0.00 | 78 | 1008.0 |
| 20260506175403 | 18 | 217 | 12.9 | 25.7 | 0.00 | 0.00 | 0.00 | 74 | 1008.1 |
| 20260506174503 | 18 | 222 | 11.3 | 33.8 | 0.00 | 0.00 | 0.00 | 70 | 1008.1 |
| 20260506173603 | 20 | 204 | 8.0 | 33.8 | 0.00 | 0.00 | 0.00 | 65 | 1007.9 |
| 20260506172703 | 20 | 198 | 8.0 | 27.4 | 0.00 | 0.00 | 0.00 | 64 | 1007.8 |
| 20260506171803 | 20 | 181 | 11.3 | 33.8 | 0.00 | 0.00 | 0.00 | 62 | 1007.6 |
| 20260506170903 | 21 | 182 | 8.0 | 24.1 | 0.00 | 0.00 | 0.00 | 62 | 1007.7 |
| 20260506170004 | 20 | 213 | 9.7 | 35.4 | 0.00 | 0.00 | 0.00 | 61 | 1007.7 |
| 20260506165403 | 20 | 204 | 11.3 | 35.4 | 0.00 | 0.00 | 0.00 | 61 | 1007.7 |
| 20260506164503 | 21 | 187 | 11.3 | 32.2 | 0.00 | 0.00 | 0.00 | 60 | 1007.9 |
| 20260506163812 | 21 | 187 | 8.0 | 30.6 | 0.00 | 0.00 | 0.00 | 61 | 1007.8 |
| 20260506162703 | 20 | 196 | 8.0 | 27.4 | 0.00 | 0.00 | 0.00 | 62 | 1008.0 |
| 20260506162013 | 20 | 189 | 8.0 | 22.5 | 0.00 | 0.00 | 0.00 | 63 | 1008.2 |
| 20260506160903 | 20 | 202 | 9.7 | 25.7 | 0.00 | 0.00 | 0.00 | 63 | 1008.2 |
| 20260506160003 | 20 | 209 | 8.0 | 25.7 | 0.00 | 0.00 | 0.00 | 64 | 1008.6 |
| 20260506155613 | 20 | 209 | 8.0 | 25.7 | 0.00 | 0.00 | 0.00 | 64 | 1008.6 |
| 20260506154503 | 20 | 187 | 8.0 | 27.4 | 0.00 | 0.00 | 0.00 | 63 | 1008.9 |
| 20260506153603 | 20 | 197 | 6.4 | 25.7 | 0.00 | 0.00 | 0.00 | 65 | 1008.9 |
| 20260506152913 | 20 | 214 | 8.0 | 27.4 | 0.00 | 0.00 | 0.00 | 65 | 1008.9 |
| 20260506151803 | 20 | 203 | 8.0 | 17.7 | 0.00 | 0.00 | 0.00 | 65 | 1009.1 |
| 20260506150903 | 20 | 186 | 4.8 | 16.1 | 0.00 | 0.00 | 0.00 | 66 | 1009.3 |
| 20260506150003 | 20 | 201 | 8.0 | 24.1 | 0.00 | 0.00 | 0.00 | 66 | 1009.4 |
| 20260506145403 | 20 | 190 | 8.0 | 24.1 | 0.00 | 0.00 | 0.00 | 67 | 1009.4 |
| 20260506144503 | 20 | 170 | 4.8 | 14.5 | 0.00 | 0.00 | 0.00 | 70 | 1009.3 |
| 20260506143603 | 19 | 184 | 6.4 | 22.5 | 0.00 | 0.00 | 0.00 | 69 | 1009.5 |